createdAt,value
2018-07-03T04:51:38.342Z,8.67
2018-07-03T04:52:46.380Z,8.87
2018-07-03T04:53:52.508Z,13.07
2018-07-03T04:54:58.704Z,9.10
2018-07-03T04:56:04.908Z,13.97
2018-07-03T04:57:12.266Z,11.40
2018-07-03T04:58:20.313Z,11.87
2018-07-03T04:59:27.278Z,12.70
2018-07-03T05:00:33.346Z,9.90
2018-07-03T05:01:39.376Z,13.00
2018-07-03T05:02:45.537Z,8.83
2018-07-03T05:03:51.896Z,10.30
2018-07-03T05:04:57.992Z,15.17
2018-07-03T05:06:04.096Z,7.60
2018-07-03T05:07:10.322Z,14.40
2018-07-03T05:08:16.277Z,12.63
2018-07-03T05:09:22.206Z,8.40
2018-07-03T05:10:28.575Z,9.80
2018-07-03T05:11:34.891Z,10.77
2018-07-03T05:12:41.003Z,9.67
2018-07-03T05:13:47.121Z,14.53
2018-07-03T05:14:53.210Z,12.70
2018-07-03T05:15:59.336Z,10.17
2018-07-03T05:17:05.308Z,9.27
2018-07-03T05:18:11.274Z,15.10
2018-07-03T05:19:17.431Z,9.30
2018-07-03T05:20:23.671Z,11.63
2018-07-03T05:21:29.998Z,15.07
2018-07-03T05:22:36.179Z,10.57
2018-07-03T05:23:42.288Z,8.77
2018-07-03T05:24:48.484Z,7.33
2018-07-03T05:25:54.569Z,7.37
2018-07-03T05:27:00.470Z,11.10
2018-07-03T05:28:06.580Z,7.97
2018-07-03T05:29:12.757Z,9.03
2018-07-03T05:30:18.725Z,10.70
2018-07-03T05:31:24.924Z,8.33
2018-07-03T05:32:31.279Z,10.63
2018-07-03T05:33:37.456Z,9.27
2018-07-03T05:34:43.596Z,7.53
2018-07-03T05:35:49.627Z,7.20
2018-07-03T05:36:55.840Z,6.50
2018-07-03T05:38:01.921Z,9.93
2018-07-03T05:39:11.228Z,6.60
2018-07-03T05:40:17.483Z,8.17
2018-07-03T05:41:23.591Z,10.37
2018-07-03T05:42:31.850Z,6.23
2018-07-03T05:43:37.974Z,6.60
2018-07-03T05:44:44.106Z,6.77
2018-07-03T05:45:50.294Z,9.23
2018-07-03T05:46:56.373Z,6.13
2018-07-03T05:48:02.733Z,6.47
2018-07-03T05:49:08.906Z,7.60
2018-07-03T05:50:14.889Z,6.20
2018-07-03T05:51:21.169Z,6.87
2018-07-03T05:52:28.671Z,6.47
2018-07-03T05:53:34.927Z,7.90
2018-07-03T05:54:40.975Z,8.43
2018-07-03T05:55:47.106Z,5.60
2018-07-03T05:56:53.398Z,5.90
2018-07-03T05:57:59.379Z,7.27
2018-07-03T05:59:05.664Z,7.00
2018-07-03T06:00:11.897Z,7.10
2018-07-03T06:01:18.137Z,8.50
2018-07-03T06:02:24.213Z,5.80
2018-07-03T06:03:30.391Z,9.27
2018-07-03T06:04:36.507Z,6.40
2018-07-03T06:05:42.553Z,6.80
2018-07-03T06:06:48.750Z,6.00
2018-07-03T06:07:55.211Z,5.73
2018-07-03T06:09:02.248Z,5.90
2018-07-03T06:10:08.481Z,8.83
2018-07-03T06:11:14.659Z,11.93
2018-07-03T06:12:20.737Z,7.50
2018-07-03T06:13:27.309Z,6.93
2018-07-03T06:14:33.569Z,7.63
2018-07-03T06:15:39.761Z,7.90
2018-07-03T06:16:45.961Z,6.53
2018-07-03T06:17:52.132Z,8.77
2018-07-03T06:18:58.447Z,5.97
2018-07-03T06:20:04.823Z,9.53
2018-07-03T06:21:10.913Z,6.17
2018-07-03T06:22:17.006Z,5.97
2018-07-03T06:23:23.039Z,6.60
2018-07-03T06:24:28.987Z,9.80
2018-07-03T06:25:35.317Z,11.30
2018-07-03T06:26:41.358Z,7.77
2018-07-03T06:27:47.441Z,7.87
2018-07-03T06:28:53.827Z,5.63
2018-07-03T06:30:00.125Z,8.90
2018-07-03T06:31:06.710Z,6.03
2018-07-03T06:32:13.001Z,6.37
2018-07-03T06:33:19.290Z,6.47
2018-07-03T06:34:25.585Z,6.93
2018-07-03T06:35:31.940Z,5.67
2018-07-03T06:36:38.055Z,6.00
2018-07-03T06:37:46.080Z,7.20
2018-07-03T06:38:52.513Z,10.17
2018-07-03T06:39:58.844Z,6.23
2018-07-03T06:41:05.214Z,6.40
2018-07-03T06:42:11.404Z,5.87
2018-07-03T06:43:17.535Z,5.50
2018-07-03T06:44:23.905Z,6.43
2018-07-03T06:45:30.141Z,13.27
2018-07-03T06:46:37.275Z,7.37
2018-07-03T06:47:43.447Z,5.70
2018-07-03T06:48:49.573Z,4.50
2018-07-03T06:49:56.926Z,13.00
2018-07-03T06:51:03.141Z,5.87
2018-07-03T06:52:09.945Z,7.90
2018-07-03T06:53:17.292Z,7.97
2018-07-03T06:54:23.398Z,5.80
2018-07-03T06:55:30.425Z,7.40
2018-07-03T06:56:36.737Z,9.63
2018-07-03T06:57:42.902Z,5.40
2018-07-03T06:58:51.598Z,6.27
2018-07-03T06:59:57.953Z,5.70
2018-07-03T07:01:04.111Z,11.73
2018-07-03T07:02:10.192Z,7.47
2018-07-03T07:03:16.326Z,6.90
2018-07-03T07:04:22.658Z,5.23
2018-07-03T07:05:29.522Z,8.53
2018-07-03T07:06:35.719Z,5.20
2018-07-03T07:07:42.069Z,7.93
2018-07-03T07:08:48.295Z,9.07
2018-07-03T07:09:54.621Z,7.93
2018-07-03T07:11:00.923Z,4.37
2018-07-03T07:12:07.253Z,9.60
2018-07-03T07:13:14.957Z,5.13
2018-07-03T07:14:22.180Z,4.83
2018-07-03T07:15:28.361Z,7.33
2018-07-03T07:16:34.825Z,5.10
2018-07-03T07:17:42.049Z,5.13
2018-07-03T07:18:48.725Z,10.20
2018-07-03T07:19:54.951Z,7.13
2018-07-03T07:21:01.157Z,7.53
2018-07-03T07:22:07.361Z,5.53
2018-07-03T07:23:13.551Z,6.10
2018-07-03T07:24:19.673Z,9.70
2018-07-03T07:25:26.497Z,5.23
2018-07-03T07:26:32.725Z,6.80
2018-07-03T07:27:39.049Z,9.13
2018-07-03T07:28:45.358Z,4.70
2018-07-03T07:29:51.747Z,9.10
2018-07-03T07:30:58.105Z,12.23
2018-07-03T07:32:04.279Z,9.93
2018-07-03T07:33:10.595Z,9.33
2018-07-03T07:34:16.833Z,6.30
2018-07-03T07:35:22.923Z,8.20
2018-07-03T07:36:32.131Z,9.83
2018-07-03T07:38:06.955Z,5.53
2018-07-03T07:39:22.605Z,5.50
2018-07-03T07:40:58.323Z,4.67
2018-07-03T07:42:36.258Z,5.13
2018-07-03T07:44:01.165Z,8.37
2018-07-03T07:45:13.227Z,10.47
2018-07-03T07:46:21.023Z,5.13
2018-07-03T07:47:28.155Z,7.07
2018-07-03T07:48:35.394Z,5.80
2018-07-03T07:49:42.656Z,8.00
2018-07-03T07:50:49.876Z,5.23
2018-07-03T07:51:55.995Z,7.10
2018-07-03T07:53:03.434Z,11.07
2018-07-03T07:54:09.876Z,6.23
2018-07-03T07:55:15.959Z,7.63
2018-07-03T07:56:22.171Z,5.30
2018-07-03T07:57:30.277Z,5.00
2018-07-03T07:58:36.358Z,9.33
2018-07-03T07:59:42.786Z,5.67
2018-07-03T08:00:48.785Z,5.03
2018-07-03T08:01:55.074Z,10.53
2018-07-03T08:03:01.244Z,8.93
2018-07-03T08:04:07.526Z,8.10
2018-07-03T08:05:13.803Z,9.17
2018-07-03T08:06:20.126Z,9.33
2018-07-03T08:07:27.710Z,6.90
2018-07-03T08:08:33.845Z,5.50
2018-07-03T08:09:40.440Z,9.77
2018-07-03T08:10:46.546Z,6.57
2018-07-03T08:11:52.628Z,9.10
2018-07-03T08:12:58.707Z,6.17
2018-07-03T08:14:05.970Z,6.33
2018-07-03T08:15:12.425Z,8.03
2018-07-03T08:16:18.608Z,6.87
2018-07-03T08:17:24.873Z,10.37
2018-07-03T08:18:31.277Z,7.83
2018-07-03T08:19:38.928Z,11.37
2018-07-03T08:20:46.452Z,9.27
2018-07-03T08:21:55.059Z,12.10
2018-07-03T08:23:01.242Z,11.17
2018-07-03T08:24:07.455Z,9.87
2018-07-03T08:25:13.707Z,7.50
2018-07-03T08:26:19.851Z,6.73
2018-07-03T08:27:25.964Z,8.57
2018-07-03T08:28:33.105Z,10.60
2018-07-03T08:29:39.342Z,9.07
2018-07-03T08:30:45.684Z,8.80
2018-07-03T08:31:51.930Z,10.53
2018-07-03T08:32:58.876Z,10.27
2018-07-03T08:34:05.280Z,7.20
2018-07-03T08:35:12.440Z,10.77
2018-07-03T08:36:18.672Z,10.97
2018-07-03T08:37:25.182Z,7.03
2018-07-03T08:38:32.496Z,11.10
2018-07-03T08:39:38.791Z,10.43
2018-07-03T08:40:46.078Z,10.63
2018-07-03T08:41:52.380Z,9.40
2018-07-03T08:42:58.628Z,11.83
2018-07-03T08:44:05.120Z,12.47
2018-07-03T08:45:11.420Z,6.93
2018-07-03T08:46:19.326Z,10.00
2018-07-03T08:47:25.438Z,14.53
2018-07-03T08:48:33.731Z,7.00
2018-07-03T08:49:40.254Z,10.63
2018-07-03T08:50:46.848Z,10.80
2018-07-03T08:51:53.036Z,13.13
2018-07-03T08:52:59.626Z,7.90
2018-07-03T08:54:05.995Z,13.20
2018-07-03T08:55:12.356Z,8.07
2018-07-03T08:56:18.812Z,9.43
2018-07-03T08:57:25.170Z,9.00
2018-07-03T08:58:33.640Z,9.60
2018-07-03T08:59:41.221Z,16.47
2018-07-03T09:00:48.246Z,11.60
2018-07-03T09:01:54.550Z,9.93
2018-07-03T09:03:00.702Z,8.77
2018-07-03T09:04:08.287Z,8.70
2018-07-03T09:05:16.211Z,10.27
2018-07-03T09:06:24.604Z,7.00
2018-07-03T09:07:30.922Z,9.13
2018-07-03T09:08:37.340Z,6.10
2018-07-03T09:09:43.634Z,10.57
2018-07-03T09:10:51.463Z,10.93
2018-07-03T09:11:59.123Z,11.07
2018-07-03T09:13:05.420Z,9.00
2018-07-03T09:14:11.677Z,11.10
2018-07-03T09:15:17.968Z,8.97
2018-07-03T09:16:24.294Z,12.67
2018-07-03T09:17:31.222Z,12.10
2018-07-03T09:18:37.508Z,12.07
2018-07-03T09:19:43.767Z,6.97
2018-07-03T09:20:49.946Z,8.00
2018-07-03T09:21:56.280Z,8.90
2018-07-03T09:23:03.822Z,11.33
2018-07-03T09:24:10.194Z,14.03
2018-07-03T09:25:17.368Z,8.70
2018-07-03T09:26:23.798Z,8.37
2018-07-03T09:27:29.886Z,9.50
2018-07-03T09:28:35.950Z,12.73
2018-07-03T09:29:42.173Z,7.03
2018-07-03T09:30:48.436Z,6.80
2018-07-03T09:31:54.736Z,10.17
2018-07-03T09:33:02.233Z,7.10
2018-07-03T09:34:08.423Z,8.03
2018-07-03T09:35:14.666Z,6.40
2018-07-03T09:36:20.687Z,9.00
2018-07-03T09:37:26.874Z,11.80
2018-07-03T09:38:34.508Z,11.20
2018-07-03T09:39:40.668Z,8.40
2018-07-03T09:40:46.810Z,10.73
2018-07-03T09:41:53.838Z,12.33
2018-07-03T09:43:00.466Z,9.10
2018-07-03T09:44:06.729Z,7.87
2018-07-03T09:45:12.943Z,12.63
2018-07-03T09:46:20.127Z,9.00
2018-07-03T09:47:26.628Z,19.50
2018-07-03T09:48:33.234Z,11.73
2018-07-03T09:49:40.413Z,11.37
2018-07-03T09:50:46.735Z,9.17
2018-07-03T09:51:54.226Z,14.53
2018-07-03T09:53:01.586Z,10.47
2018-07-03T09:54:07.910Z,13.07
2018-07-03T09:55:14.068Z,11.60
2018-07-03T09:56:20.264Z,8.37
2018-07-03T09:57:26.542Z,11.27
2018-07-03T09:58:32.860Z,7.40
2018-07-03T09:59:39.954Z,11.60
2018-07-03T10:00:52.657Z,8.53
2018-07-03T10:02:01.118Z,9.70
2018-07-03T10:03:07.823Z,11.13
2018-07-03T10:04:14.785Z,10.30
2018-07-03T10:05:21.132Z,7.80
2018-07-03T10:06:27.324Z,10.47
2018-07-03T10:07:33.528Z,9.30
2018-07-03T10:08:39.942Z,12.10
2018-07-03T10:09:46.082Z,11.70
2018-07-03T10:10:52.052Z,10.90
2018-07-03T10:11:58.132Z,8.57
2018-07-03T10:13:04.272Z,12.73
2018-07-03T10:14:10.607Z,10.67
2018-07-03T10:15:16.787Z,17.10
2018-07-03T10:16:22.868Z,13.47
2018-07-03T10:17:28.906Z,9.60
2018-07-03T10:18:36.096Z,10.23
2018-07-03T10:19:44.198Z,15.40
2018-07-03T10:20:51.228Z,12.93
2018-07-03T10:21:57.448Z,11.17
2018-07-03T10:23:04.758Z,14.10
2018-07-03T10:24:11.814Z,14.10
2018-07-03T10:25:19.112Z,13.37
2018-07-03T10:26:25.202Z,11.73
2018-07-03T10:27:31.316Z,16.40
2018-07-03T10:28:37.476Z,9.53
2018-07-03T10:29:43.561Z,20.20
2018-07-03T10:30:49.854Z,8.60
2018-07-03T10:31:56.337Z,14.77
2018-07-03T10:33:04.870Z,14.47
2018-07-03T10:34:11.130Z,15.43
2018-07-03T10:35:17.543Z,9.93
2018-07-03T10:36:23.835Z,14.30
2018-07-03T10:37:30.077Z,11.20
2018-07-03T10:38:37.288Z,8.80
2018-07-03T10:39:43.380Z,14.77
2018-07-03T10:40:49.660Z,11.00
2018-07-03T10:41:55.870Z,12.50
2018-07-03T10:43:02.099Z,10.43
2018-07-03T10:44:09.671Z,10.90
2018-07-03T10:45:16.339Z,10.87
2018-07-03T10:46:22.683Z,12.30
2018-07-03T10:47:28.800Z,15.37
2018-07-03T10:48:35.492Z,13.13
2018-07-03T10:49:41.758Z,14.70
2018-07-03T10:50:47.867Z,13.03
2018-07-03T10:51:53.975Z,12.13
2018-07-03T10:53:00.151Z,11.20
2018-07-03T10:54:06.219Z,10.80
2018-07-03T10:56:27.823Z,9.60
2018-07-03T10:57:33.997Z,16.93
2018-07-03T11:00:07.887Z,9.27
2018-07-03T11:01:43.170Z,14.73
2018-07-03T11:02:49.314Z,11.93
2018-07-03T11:04:09.559Z,10.90
2018-07-03T11:05:15.819Z,11.20
2018-07-03T11:06:22.075Z,9.57
2018-07-03T11:07:38.257Z,18.00
2018-07-03T11:09:32.572Z,11.90
2018-07-03T11:10:40.848Z,9.27
2018-07-03T11:11:58.340Z,9.57
2018-07-03T11:13:29.074Z,14.30
2018-07-03T11:14:35.221Z,15.20
2018-07-03T11:15:55.018Z,10.80
2018-07-03T11:17:01.202Z,10.70
2018-07-03T11:18:07.420Z,14.13
2018-07-03T11:19:13.846Z,10.67
2018-07-03T11:20:20.005Z,12.00
2018-07-03T11:22:40.190Z,14.27
2018-07-03T11:23:46.592Z,10.57
2018-07-03T11:24:52.792Z,14.40
2018-07-03T11:25:58.912Z,14.40
2018-07-03T11:27:13.931Z,15.53
2018-07-03T11:28:30.203Z,10.93
2018-07-03T11:29:36.387Z,8.27
2018-07-03T11:34:53.864Z,13.87
2018-07-03T11:36:00.510Z,17.27
2018-07-03T11:37:12.368Z,9.80
2018-07-03T11:38:27.249Z,18.37
2018-07-03T11:39:33.313Z,12.60
2018-07-03T11:40:39.754Z,14.87
2018-07-03T11:41:52.110Z,17.07
2018-07-03T11:44:22.673Z,17.10
2018-07-03T11:46:52.934Z,13.60
2018-07-03T11:48:00.049Z,13.03
2018-07-03T11:49:06.408Z,13.13
2018-07-03T11:50:27.252Z,11.50
2018-07-03T11:51:33.608Z,9.50
2018-07-03T11:53:53.746Z,15.47
2018-07-03T11:55:00.064Z,13.87
2018-07-03T11:56:08.283Z,12.33
2018-07-03T11:57:16.298Z,8.90
2018-07-03T11:58:23.201Z,14.63
2018-07-03T11:59:30.489Z,12.10
2018-07-03T12:00:55.918Z,20.57
2018-07-03T12:02:03.106Z,13.17
2018-07-03T12:10:04.683Z,21.07
2018-07-03T12:11:12.462Z,14.37
2018-07-03T12:13:42.341Z,12.13
2018-07-03T12:14:48.617Z,14.60
2018-07-03T12:15:54.828Z,12.30
2018-07-03T12:17:01.972Z,17.50
2018-07-03T12:19:16.291Z,14.03
2018-07-03T12:21:50.081Z,11.70
2018-07-03T12:23:00.347Z,15.47
2018-07-03T12:24:20.153Z,11.70
2018-07-03T12:25:28.178Z,14.50
2018-07-03T12:26:34.817Z,9.77
2018-07-03T12:27:49.500Z,10.37
2018-07-03T12:29:04.063Z,12.30
2018-07-03T12:30:13.274Z,13.20
2018-07-03T12:31:20.320Z,16.90
2018-07-03T12:32:27.303Z,16.87
2018-07-03T12:33:34.574Z,17.67
2018-07-03T12:34:41.143Z,12.80
2018-07-03T12:35:48.214Z,12.57
2018-07-03T12:38:45.996Z,12.90
2018-07-03T12:40:17.754Z,12.67
2018-07-03T12:41:24.510Z,18.23
2018-07-03T12:42:31.721Z,11.43
2018-07-03T12:43:38.886Z,12.03
2018-07-03T12:44:45.140Z,14.03
2018-07-03T12:45:52.240Z,12.43
2018-07-03T12:46:58.495Z,12.83
2018-07-03T12:48:04.892Z,12.40
2018-07-03T12:49:12.483Z,15.80
2018-07-03T12:50:19.647Z,16.87
2018-07-03T12:51:26.790Z,12.10
2018-07-03T12:52:33.233Z,17.63
2018-07-03T12:53:41.910Z,19.53
2018-07-03T12:54:49.710Z,17.73
2018-07-03T12:55:57.395Z,14.57
2018-07-03T12:57:03.670Z,18.90
2018-07-03T12:58:09.716Z,15.97
2018-07-03T12:59:15.909Z,16.00
2018-07-03T13:00:22.487Z,12.77
2018-07-03T13:01:29.738Z,18.20
2018-07-03T13:02:37.124Z,17.83
2018-07-03T13:03:45.114Z,14.30
2018-07-03T13:04:51.583Z,13.17
2018-07-03T13:05:57.963Z,19.33
2018-07-03T13:07:05.721Z,10.83
2018-07-03T13:08:12.704Z,11.60
2018-07-03T13:09:19.015Z,15.97
2018-07-03T13:10:25.192Z,15.47
2018-07-03T13:11:31.619Z,19.33
2018-07-03T13:12:38.039Z,26.23
2018-07-03T13:13:44.280Z,16.47
2018-07-03T13:14:50.551Z,11.90
2018-07-03T13:15:57.704Z,10.50
2018-07-03T13:17:05.636Z,11.70
2018-07-03T13:18:18.714Z,19.90
2018-07-03T13:19:25.900Z,13.60
2018-07-03T13:20:33.896Z,16.20
2018-07-03T13:21:41.286Z,15.13
2018-07-03T13:22:50.004Z,12.43
2018-07-03T13:23:57.080Z,13.70
2018-07-03T13:25:04.331Z,20.67
2018-07-03T13:26:10.621Z,19.40
2018-07-03T13:27:17.924Z,11.73
2018-07-03T13:28:25.272Z,16.80
2018-07-03T13:29:32.271Z,20.33
2018-07-03T13:30:41.104Z,20.03
2018-07-03T13:31:48.942Z,25.70
2018-07-03T13:32:56.894Z,13.77
2018-07-03T13:34:04.081Z,14.27
2018-07-03T13:35:11.640Z,14.53
2018-07-03T13:36:17.910Z,18.70
2018-07-03T13:37:24.396Z,26.77
2018-07-03T13:38:32.072Z,20.27
2018-07-03T13:39:39.175Z,19.00
2018-07-03T13:40:46.092Z,24.53
2018-07-03T13:41:53.447Z,17.40
2018-07-03T13:43:00.066Z,19.40
2018-07-03T13:44:08.057Z,16.13
2018-07-03T13:45:14.342Z,25.03
2018-07-03T13:46:21.440Z,17.93
2018-07-03T13:47:29.463Z,16.17
2018-07-03T13:48:37.122Z,19.03
2018-07-03T13:49:43.172Z,20.00
2018-07-03T13:50:49.800Z,14.17
2018-07-03T13:51:55.876Z,13.43
2018-07-03T13:53:16.731Z,20.10
2018-07-03T13:54:26.742Z,13.07
2018-07-03T13:55:33.076Z,20.60
2018-07-03T13:56:40.125Z,17.67
2018-07-03T13:57:47.653Z,16.27
2018-07-03T13:58:53.838Z,16.80
2018-07-03T14:00:00.176Z,15.80
2018-07-03T14:01:06.513Z,19.37
2018-07-03T14:02:12.685Z,21.20
2018-07-03T14:03:19.086Z,17.17
2018-07-03T14:04:26.255Z,27.90
2018-07-03T14:05:33.475Z,11.80
2018-07-03T14:06:39.763Z,28.73
2018-07-03T14:07:45.888Z,15.63
2018-07-03T14:08:52.170Z,19.90
2018-07-03T14:09:58.672Z,16.33
2018-07-03T14:11:06.461Z,16.50
2018-07-03T14:12:12.703Z,22.37
2018-07-03T14:13:18.833Z,16.67
2018-07-03T14:14:25.043Z,15.93
2018-07-03T14:15:31.147Z,20.63
2018-07-03T14:16:37.410Z,22.33
2018-07-03T14:17:43.656Z,21.77
2018-07-03T14:18:50.082Z,18.43
2018-07-03T14:19:56.408Z,15.53
2018-07-03T14:21:02.582Z,20.17
2018-07-03T14:22:09.128Z,17.57
2018-07-03T14:23:16.097Z,18.43
2018-07-03T14:24:22.225Z,17.83
2018-07-03T14:25:30.129Z,15.83
2018-07-03T14:26:36.494Z,20.93
2018-07-03T14:27:42.758Z,20.73
2018-07-03T14:28:49.795Z,17.90
2018-07-03T14:29:56.106Z,17.53
2018-07-03T14:31:02.185Z,18.00
2018-07-03T14:32:08.712Z,15.50
2018-07-03T14:33:14.836Z,21.37
2018-07-03T14:34:20.930Z,19.80
2018-07-03T14:35:27.179Z,18.43
2018-07-03T14:36:33.422Z,14.67
2018-07-03T14:37:39.451Z,22.80
2018-07-03T14:38:46.750Z,25.10
2018-07-03T14:39:52.829Z,19.33
2018-07-03T14:41:01.330Z,22.67
2018-07-03T14:42:07.435Z,21.20
2018-07-03T14:43:15.664Z,17.50
2018-07-03T14:44:22.127Z,19.00
2018-07-03T14:45:29.340Z,19.50
2018-07-03T14:46:35.644Z,15.43
2018-07-03T14:47:41.747Z,21.97
2018-07-03T14:48:47.992Z,25.77
2018-07-03T14:49:54.358Z,15.27
2018-07-03T14:51:00.632Z,14.37
2018-07-03T14:52:07.073Z,16.13
2018-07-03T14:53:13.088Z,20.20
2018-07-03T14:54:19.333Z,12.13
2018-07-03T14:55:25.542Z,22.03
2018-07-03T14:56:31.675Z,21.13
2018-07-03T14:57:37.886Z,20.27
2018-07-03T14:58:44.116Z,14.60
2018-07-03T15:01:04.376Z,17.47
2018-07-03T15:02:11.495Z,15.40
2018-07-03T15:03:17.602Z,18.63
2018-07-03T15:04:23.786Z,14.50
2018-07-03T15:05:30.138Z,16.90
2018-07-03T15:06:36.471Z,14.20
2018-07-03T15:07:43.110Z,13.70
2018-07-03T15:08:49.401Z,19.23
2018-07-03T15:09:56.568Z,14.53
2018-07-03T15:11:03.318Z,15.83
2018-07-03T15:12:09.543Z,15.70
2018-07-03T15:13:16.583Z,21.63
2018-07-03T15:14:24.292Z,15.83
2018-07-03T15:15:30.568Z,14.20
2018-07-03T15:16:36.818Z,16.03
2018-07-03T15:17:42.998Z,17.73
2018-07-03T15:18:53.961Z,12.57
2018-07-03T15:20:01.017Z,11.73
2018-07-03T15:21:07.136Z,22.53
2018-07-03T15:22:13.229Z,15.63
2018-07-03T15:23:20.652Z,18.10
2018-07-03T15:24:27.981Z,17.67
2018-07-03T15:25:34.212Z,17.87
2018-07-03T15:26:41.753Z,16.33
2018-07-03T15:27:47.992Z,14.93
2018-07-03T15:28:54.445Z,14.77
2018-07-03T15:30:01.886Z,19.33
2018-07-03T15:31:12.712Z,17.23
2018-07-03T15:32:18.976Z,13.53
2018-07-03T15:33:25.228Z,19.70
2018-07-03T15:34:33.933Z,18.13
2018-07-03T15:35:40.082Z,19.37
2018-07-03T15:36:46.614Z,18.57
2018-07-03T15:37:52.792Z,13.97
2018-07-03T15:38:58.939Z,18.23
2018-07-03T15:40:05.196Z,15.00
2018-07-03T15:41:11.627Z,17.13
2018-07-03T15:42:18.904Z,18.60
2018-07-03T15:43:26.500Z,19.37
2018-07-03T15:44:43.308Z,19.53
2018-07-03T15:45:49.532Z,22.80
2018-07-03T15:46:55.956Z,28.00
2018-07-03T15:48:02.156Z,21.03
2018-07-03T15:49:09.889Z,18.63
2018-07-03T15:50:16.714Z,20.93
2018-07-03T15:51:22.829Z,17.03
2018-07-03T15:52:31.485Z,18.20
2018-07-03T15:53:37.825Z,20.70
2018-07-03T15:54:45.791Z,15.90
2018-07-03T15:55:52.080Z,17.27
2018-07-03T15:56:59.205Z,19.53
2018-07-03T15:58:05.615Z,16.40
2018-07-03T15:59:11.794Z,34.53
2018-07-03T16:00:18.054Z,54.27
2018-07-03T16:01:24.447Z,41.23
2018-07-03T16:02:31.703Z,26.13
2018-07-03T16:04:04.344Z,33.93
2018-07-03T16:05:21.353Z,42.43
2018-07-03T16:06:37.923Z,22.67
2018-07-03T16:08:01.652Z,29.20
2018-07-03T16:09:11.970Z,34.83
2018-07-03T16:10:18.234Z,29.97
2018-07-03T16:11:24.371Z,20.53
2018-07-03T16:12:31.512Z,23.30
2018-07-03T16:13:38.421Z,30.10
2018-07-03T16:14:47.837Z,18.10
2018-07-03T16:15:54.809Z,17.10
2018-07-03T16:17:03.041Z,30.17
2018-07-03T16:18:10.790Z,16.13
2018-07-03T16:19:21.772Z,28.50
2018-07-03T16:20:33.159Z,34.73
2018-07-03T16:21:40.773Z,21.67
2018-07-03T16:22:46.924Z,17.73
2018-07-03T16:23:53.037Z,20.40
2018-07-03T16:24:59.270Z,20.33
2018-07-03T16:26:06.966Z,22.80
2018-07-03T16:27:13.354Z,23.77
2018-07-03T16:28:19.439Z,18.10
2018-07-03T16:29:25.605Z,25.23
2018-07-03T16:30:31.750Z,19.40
2018-07-03T16:31:40.828Z,17.47
2018-07-03T16:32:47.143Z,16.00
2018-07-03T16:33:54.584Z,20.93
2018-07-03T16:35:00.664Z,16.23
2018-07-03T16:36:06.952Z,19.07
2018-07-03T16:37:13.114Z,21.33
2018-07-03T16:38:20.271Z,15.73
2018-07-03T16:39:26.579Z,21.43
2018-07-03T16:40:32.892Z,21.27
2018-07-03T16:41:39.898Z,25.03
2018-07-03T16:42:46.430Z,18.07
2018-07-03T16:43:53.450Z,14.57
2018-07-03T16:44:59.661Z,19.53
2018-07-03T16:46:07.403Z,28.03
2018-07-03T16:47:13.612Z,16.90
2018-07-03T16:48:20.601Z,19.43
2018-07-03T16:49:26.902Z,21.63
2018-07-03T16:50:52.657Z,24.13
2018-07-03T16:51:59.410Z,14.20
2018-07-03T16:53:06.090Z,22.63
2018-07-03T16:54:12.158Z,18.83
2018-07-03T16:55:18.425Z,16.83
2018-07-03T16:56:24.505Z,14.47
2018-07-03T16:57:31.074Z,23.93
2018-07-03T16:58:38.471Z,13.83
2018-07-03T16:59:44.588Z,18.13
2018-07-03T17:00:50.707Z,15.93
2018-07-03T17:01:57.460Z,11.40
2018-07-03T17:03:10.135Z,15.57
2018-07-03T17:04:18.185Z,12.50
2018-07-03T17:05:24.813Z,13.47
2018-07-03T17:06:34.327Z,25.70
2018-07-03T17:07:40.685Z,14.20
2018-07-03T17:08:48.737Z,15.60
2018-07-03T17:09:54.735Z,17.37
2018-07-03T17:11:01.344Z,16.83
2018-07-03T17:12:08.400Z,13.97
2018-07-03T17:13:17.336Z,19.20
2018-07-03T17:14:23.890Z,15.43
2018-07-03T17:15:29.887Z,19.53
2018-07-03T17:16:35.847Z,24.50
2018-07-03T17:17:42.584Z,16.07
2018-07-03T17:18:56.861Z,18.60
2018-07-03T17:20:03.303Z,16.03
2018-07-03T17:21:10.530Z,18.47
2018-07-03T17:22:18.714Z,17.37
2018-07-03T17:23:27.615Z,23.50
2018-07-03T17:24:33.926Z,20.60
2018-07-03T17:25:40.096Z,11.87
2018-07-03T17:26:48.220Z,18.57
2018-07-03T17:27:55.643Z,19.10
2018-07-03T17:29:02.580Z,17.60
2018-07-03T17:30:09.284Z,16.60
2018-07-03T17:31:16.330Z,15.70
2018-07-03T17:32:22.419Z,16.80
2018-07-03T17:33:31.578Z,16.33
2018-07-03T17:34:39.571Z,15.90
2018-07-03T17:35:45.888Z,11.23
2018-07-03T17:36:52.025Z,13.93
2018-07-03T17:37:59.818Z,17.43
2018-07-03T17:39:14.992Z,11.53
2018-07-03T17:40:31.707Z,11.40
2018-07-03T17:41:49.156Z,11.70
2018-07-03T17:43:06.653Z,14.40
2018-07-03T17:44:24.365Z,16.17
2018-07-03T17:45:41.999Z,12.43
2018-07-03T17:46:48.306Z,23.70
2018-07-03T17:47:54.361Z,13.10
2018-07-03T17:49:05.407Z,11.27
2018-07-03T17:50:11.861Z,14.53
2018-07-03T17:51:19.368Z,11.90
2018-07-03T17:52:25.370Z,19.83
2018-07-03T17:53:31.623Z,28.47
2018-07-03T17:54:37.567Z,12.47
2018-07-03T17:55:43.929Z,14.57
2018-07-03T17:56:51.703Z,14.83
2018-07-03T17:57:58.452Z,13.00
2018-07-03T17:59:06.215Z,13.63
2018-07-03T18:00:12.722Z,11.13
2018-07-03T18:01:19.406Z,11.47
2018-07-03T18:02:25.703Z,11.13
2018-07-03T18:03:33.437Z,11.37
2018-07-03T18:04:39.874Z,18.50
2018-07-03T18:05:46.292Z,12.80
2018-07-03T18:06:53.339Z,15.70
2018-07-03T18:07:59.703Z,14.27
2018-07-03T18:09:08.843Z,11.57
2018-07-03T18:10:15.056Z,16.63
2018-07-03T18:11:22.588Z,14.77
2018-07-03T18:12:29.513Z,27.83
2018-07-03T18:13:36.286Z,14.40
2018-07-03T18:14:42.272Z,13.80
2018-07-03T18:15:48.551Z,12.90
2018-07-03T18:16:54.496Z,16.20
2018-07-03T18:18:00.532Z,17.67
2018-07-03T18:19:11.304Z,18.40
2018-07-03T18:20:17.264Z,11.80
2018-07-03T18:21:23.316Z,12.77
2018-07-03T18:22:29.260Z,13.50
2018-07-03T18:23:35.337Z,14.10
2018-07-03T18:24:41.891Z,14.10
2018-07-03T18:25:47.853Z,10.70
2018-07-03T18:26:53.791Z,12.33
2018-07-03T18:27:59.773Z,11.73
2018-07-03T18:29:06.253Z,17.17
2018-07-03T18:30:13.720Z,22.43
2018-07-03T18:31:19.815Z,15.47
2018-07-03T18:32:26.094Z,12.20
2018-07-03T18:33:32.980Z,12.50
2018-07-03T18:34:39.276Z,12.03
2018-07-03T18:35:45.361Z,16.80
2018-07-03T18:36:51.681Z,13.33
2018-07-03T18:37:59.399Z,12.70
2018-07-03T18:39:07.604Z,14.47
2018-07-03T18:40:15.533Z,10.50
2018-07-03T18:41:21.939Z,15.73
2018-07-03T18:42:29.027Z,14.90
2018-07-03T18:43:36.358Z,14.60
2018-07-03T18:44:42.371Z,13.07
2018-07-03T18:45:49.937Z,12.90
2018-07-03T18:46:56.073Z,13.50
2018-07-03T18:48:02.360Z,17.33
2018-07-03T18:49:09.143Z,18.83
2018-07-03T18:50:15.130Z,12.50
2018-07-03T18:51:21.333Z,11.50
2018-07-03T18:52:27.430Z,16.70
2018-07-03T18:53:35.152Z,13.03
2018-07-03T18:54:41.300Z,12.40
2018-07-03T18:55:47.613Z,17.60
2018-07-03T18:56:53.800Z,13.20
2018-07-03T18:58:02.314Z,21.07
2018-07-03T18:59:09.336Z,17.27
2018-07-03T19:00:16.089Z,18.17
2018-07-03T19:01:22.397Z,13.80
2018-07-03T19:02:29.014Z,15.13
2018-07-03T19:03:35.161Z,16.33
2018-07-03T19:04:41.934Z,12.67
2018-07-03T19:05:48.022Z,15.33
2018-07-03T19:06:54.713Z,14.10
2018-07-03T19:08:00.961Z,16.03
2018-07-03T19:09:09.653Z,23.10
2018-07-03T19:10:16.049Z,14.63
2018-07-03T19:11:22.153Z,11.33
2018-07-03T19:12:28.997Z,13.03
2018-07-03T19:13:35.090Z,12.57
2018-07-03T19:14:41.257Z,16.20
2018-07-03T19:15:47.998Z,11.00
2018-07-03T19:16:54.139Z,19.10
2018-07-03T19:18:00.850Z,11.20
2018-07-03T19:19:08.444Z,11.60
2018-07-03T19:20:14.711Z,11.83
2018-07-03T19:21:21.608Z,13.73
2018-07-03T19:22:29.575Z,12.13
2018-07-03T19:23:38.542Z,13.20
2018-07-03T19:24:46.235Z,15.07
2018-07-03T19:25:52.236Z,16.70
2018-07-03T19:26:58.386Z,14.50
2018-07-03T19:28:05.354Z,14.73
2018-07-03T19:29:14.100Z,14.27
2018-07-03T19:30:21.749Z,16.80
2018-07-03T19:31:27.745Z,15.13
2018-07-03T19:32:33.877Z,15.67
2018-07-03T19:33:41.347Z,14.07
2018-07-03T19:34:47.672Z,18.10
2018-07-03T19:35:55.340Z,15.83
2018-07-03T19:37:01.634Z,13.47
2018-07-03T19:38:07.728Z,19.17
2018-07-03T19:39:14.766Z,14.87
2018-07-03T19:40:21.405Z,16.07
2018-07-03T19:41:29.165Z,14.37
2018-07-03T19:42:35.485Z,13.57
2018-07-03T19:43:42.481Z,11.70
2018-07-03T19:44:49.838Z,14.93
2018-07-03T19:45:56.558Z,14.77
2018-07-03T19:47:02.506Z,20.73
2018-07-03T19:48:08.689Z,15.33
2018-07-03T19:49:14.778Z,14.90
2018-07-03T19:50:21.741Z,17.70
2018-07-03T19:51:28.883Z,17.07
2018-07-03T19:52:36.501Z,21.50
2018-07-03T19:53:42.781Z,16.60